createdAt,value
2023-02-21T00:00:18.086Z,12.30
2023-02-21T00:03:05.897Z,14.20
2023-02-21T00:05:54.135Z,13.13
2023-02-21T00:08:41.473Z,13.77
2023-02-21T00:11:30.654Z,10.77
2023-02-21T00:14:18.599Z,10.43
2023-02-21T00:17:06.941Z,12.03
2023-02-21T00:19:54.301Z,13.90
2023-02-21T00:22:42.009Z,9.27
2023-02-21T00:25:30.241Z,11.90
2023-02-21T00:28:20.427Z,10.27
2023-02-21T00:31:07.922Z,10.73
2023-02-21T00:33:56.488Z,12.33
2023-02-21T00:36:43.652Z,12.20
2023-02-21T00:39:31.546Z,10.47
2023-02-21T00:42:19.466Z,14.33
2023-02-21T00:45:08.258Z,9.87
2023-02-21T00:47:55.320Z,9.47
2023-02-21T00:50:42.759Z,9.63
2023-02-21T00:53:30.043Z,10.50
2023-02-21T00:56:17.589Z,8.10
2023-02-21T00:59:04.648Z,10.70
2023-02-21T01:01:54.043Z,11.63
2023-02-21T01:04:42.732Z,10.73
2023-02-21T01:07:29.964Z,13.50
2023-02-21T01:10:17.539Z,11.07
2023-02-21T01:13:05.120Z,10.97
2023-02-21T01:15:54.516Z,11.03
2023-02-21T01:18:44.329Z,10.80
2023-02-21T01:21:33.359Z,9.80
2023-02-21T01:24:20.712Z,9.13
2023-02-21T01:27:07.925Z,11.33
2023-02-21T01:29:55.676Z,9.37
2023-02-21T01:32:43.074Z,12.63
2023-02-21T01:35:31.982Z,10.73
2023-02-21T01:38:19.366Z,10.50
2023-02-21T01:41:07.495Z,8.90
2023-02-21T01:43:55.181Z,9.07
2023-02-21T01:46:42.219Z,10.00
2023-02-21T01:49:33.261Z,11.83
2023-02-21T01:52:23.460Z,11.87
2023-02-21T01:55:12.800Z,8.90
2023-02-21T01:58:00.485Z,9.83
2023-02-21T02:00:47.575Z,9.70
2023-02-21T02:03:37.694Z,10.97
2023-02-21T02:06:27.453Z,9.67
2023-02-21T02:09:17.127Z,9.90
2023-02-21T02:12:24.036Z,10.73
2023-02-21T02:15:21.250Z,10.60
2023-02-21T02:18:08.216Z,7.53
2023-02-21T02:21:13.157Z,8.27
2023-02-21T02:24:11.294Z,7.60
2023-02-21T02:27:21.681Z,8.77
2023-02-21T02:30:17.237Z,8.20
2023-02-21T02:33:06.824Z,7.33
2023-02-21T02:35:42.449Z,7.30
2023-02-21T02:38:17.714Z,8.50
2023-02-21T02:40:55.825Z,8.87
2023-02-21T02:43:32.224Z,7.43
2023-02-21T02:46:07.545Z,9.40
2023-02-21T02:48:40.334Z,6.83
2023-02-21T02:51:18.127Z,8.30
2023-02-21T02:53:49.170Z,9.37
2023-02-21T02:56:20.245Z,7.80
2023-02-21T02:58:53.491Z,8.37
2023-02-21T03:01:52.487Z,7.13
2023-02-21T03:04:51.591Z,6.50
2023-02-21T03:07:29.026Z,7.27
2023-02-21T03:10:05.876Z,8.63
2023-02-21T03:12:40.997Z,6.97
2023-02-21T03:15:15.865Z,5.50
2023-02-21T03:17:47.784Z,7.43
2023-02-21T03:20:20.887Z,7.10
2023-02-21T03:22:54.640Z,6.57
2023-02-21T03:25:27.094Z,6.47
2023-02-21T03:27:58.789Z,9.13
2023-02-21T03:30:29.056Z,6.20
2023-02-21T03:32:59.609Z,5.77
2023-02-21T03:35:31.473Z,7.80
2023-02-21T03:38:03.236Z,6.43
2023-02-21T03:40:35.225Z,6.10
2023-02-21T03:43:07.440Z,7.03
2023-02-21T03:45:37.520Z,7.57
2023-02-21T03:48:08.049Z,6.27
2023-02-21T03:50:38.184Z,6.80
2023-02-21T03:53:11.469Z,5.93
2023-02-21T03:55:42.077Z,6.33
2023-02-21T03:58:12.822Z,7.30
2023-02-21T04:00:43.859Z,6.93
2023-02-21T04:03:14.468Z,6.00
2023-02-21T04:05:44.313Z,5.23
2023-02-21T04:08:17.164Z,5.07
2023-02-21T04:10:52.325Z,5.00
2023-02-21T04:13:24.985Z,5.27
2023-02-21T04:15:56.223Z,5.13
2023-02-21T04:18:26.041Z,4.70
2023-02-21T04:20:56.016Z,4.97
2023-02-21T04:23:28.687Z,6.90
2023-02-21T04:25:59.253Z,6.20
2023-02-21T04:28:29.458Z,5.00
2023-02-21T04:30:59.895Z,5.00
2023-02-21T04:33:31.585Z,6.60
2023-02-21T04:36:02.033Z,6.03
2023-02-21T04:38:34.412Z,6.30
2023-02-21T04:41:05.266Z,6.27
2023-02-21T04:43:35.630Z,5.07
2023-02-21T04:46:06.262Z,6.73
2023-02-21T04:48:37.618Z,5.73
2023-02-21T04:51:15.167Z,5.90
2023-02-21T04:53:52.254Z,13.67
2023-02-21T04:56:24.905Z,6.10
2023-02-21T04:58:55.557Z,6.03
2023-02-21T05:01:28.652Z,10.23
2023-02-21T05:03:58.882Z,8.20
2023-02-21T05:06:31.126Z,5.37
2023-02-21T05:09:03.411Z,5.00
2023-02-21T05:11:36.622Z,7.57
2023-02-21T05:14:07.525Z,6.80
2023-02-21T05:16:38.036Z,5.97
2023-02-21T05:19:08.594Z,5.43
2023-02-21T05:21:39.175Z,5.10
2023-02-21T05:24:11.891Z,5.00
2023-02-21T05:26:42.170Z,7.33
2023-02-21T05:29:13.665Z,7.87
2023-02-21T05:31:44.646Z,6.40
2023-02-21T05:34:15.543Z,5.40
2023-02-21T05:36:46.495Z,5.43
2023-02-21T05:39:19.354Z,5.07
2023-02-21T05:41:50.710Z,7.30
2023-02-21T05:44:21.480Z,8.03
2023-02-21T05:46:52.813Z,6.33
2023-02-21T05:49:23.244Z,7.30
2023-02-21T05:51:53.778Z,6.13
2023-02-21T05:54:25.986Z,8.97
2023-02-21T05:56:55.442Z,7.10
2023-02-21T05:59:26.009Z,9.00
2023-02-21T06:01:57.816Z,7.90
2023-02-21T06:04:28.236Z,7.17
2023-02-21T06:06:58.868Z,11.47
2023-02-21T06:09:31.349Z,15.73
2023-02-21T06:12:01.575Z,14.60
2023-02-21T06:14:31.904Z,17.83
2023-02-21T06:17:04.603Z,21.20
2023-02-21T06:19:34.944Z,17.73
2023-02-21T06:22:05.376Z,20.23
2023-02-21T06:24:37.568Z,20.87
2023-02-21T06:27:08.098Z,21.37
2023-02-21T06:29:38.702Z,23.13
2023-02-21T06:32:10.235Z,18.40
2023-02-21T06:34:42.362Z,16.00
2023-02-21T06:37:12.665Z,18.47
2023-02-21T06:39:45.432Z,15.60
2023-02-21T06:42:16.757Z,12.57
2023-02-21T06:44:46.904Z,13.67
2023-02-21T06:47:17.522Z,13.47
2023-02-21T06:49:47.886Z,13.10
2023-02-21T06:52:18.852Z,11.53
2023-02-21T06:54:52.323Z,13.23
2023-02-21T06:57:23.057Z,11.20
2023-02-21T06:59:53.344Z,16.43
2023-02-21T07:02:24.279Z,10.30
2023-02-21T07:04:56.334Z,9.63
2023-02-21T07:07:26.982Z,11.70
2023-02-21T07:09:59.213Z,15.07
2023-02-21T07:12:29.176Z,12.80
2023-02-21T07:14:59.371Z,8.80
2023-02-21T07:17:30.020Z,11.50
2023-02-21T07:20:00.686Z,10.37
2023-02-21T07:22:31.982Z,11.17
2023-02-21T07:25:07.057Z,9.17
2023-02-21T07:27:38.049Z,11.53
2023-02-21T07:30:09.169Z,12.67
2023-02-21T07:32:41.751Z,11.90
2023-02-21T07:35:12.204Z,8.43
2023-02-21T07:37:42.174Z,9.40
2023-02-21T07:40:15.238Z,9.13
2023-02-21T07:42:47.470Z,12.47
2023-02-21T07:45:19.092Z,10.80
2023-02-21T07:47:51.517Z,9.30
2023-02-21T07:50:24.215Z,13.60
2023-02-21T07:52:55.232Z,10.73
2023-02-21T07:55:27.460Z,7.87
2023-02-21T07:57:58.896Z,10.87
2023-02-21T08:00:29.424Z,8.43
2023-02-21T08:03:00.731Z,10.10
2023-02-21T08:05:31.482Z,9.77
2023-02-21T08:08:01.485Z,11.63
2023-02-21T08:10:32.768Z,8.63
2023-02-21T08:13:03.956Z,8.73
2023-02-21T08:15:34.541Z,7.80
2023-02-21T08:18:04.825Z,8.33
2023-02-21T08:20:35.895Z,7.63
2023-02-21T08:23:05.721Z,9.43
2023-02-21T08:25:37.936Z,12.40
2023-02-21T08:28:08.922Z,8.33
2023-02-21T08:30:39.880Z,12.47
2023-02-21T08:33:10.795Z,6.90
2023-02-21T08:35:40.926Z,11.40
2023-02-21T08:38:11.160Z,6.40
2023-02-21T08:40:43.364Z,6.87
2023-02-21T08:43:14.208Z,8.80
2023-02-21T08:45:44.293Z,8.13
2023-02-21T08:48:14.703Z,7.30
2023-02-21T08:50:46.655Z,7.90
2023-02-21T08:53:17.519Z,11.47
2023-02-21T08:55:49.870Z,7.20
2023-02-21T08:58:20.682Z,5.07
2023-02-21T09:00:51.174Z,6.40
2023-02-21T09:03:20.964Z,5.60
2023-02-21T09:05:52.122Z,8.10
2023-02-21T09:08:24.928Z,9.73
2023-02-21T09:11:00.840Z,9.60
2023-02-21T09:13:31.096Z,12.47
2023-02-21T09:16:02.508Z,12.73
2023-02-21T09:18:33.819Z,10.07
2023-02-21T09:21:04.778Z,10.40
2023-02-21T09:23:35.720Z,8.33
2023-02-21T09:26:08.153Z,7.00
2023-02-21T09:28:43.645Z,7.13
2023-02-21T09:31:14.150Z,13.60
2023-02-21T09:33:44.758Z,9.53
2023-02-21T09:36:15.949Z,8.20
2023-02-21T09:38:46.419Z,11.50
2023-02-21T09:41:19.568Z,8.70
2023-02-21T09:43:51.751Z,8.10
2023-02-21T09:46:27.035Z,7.40
2023-02-21T09:48:57.380Z,8.40
2023-02-21T09:51:29.221Z,9.40
2023-02-21T09:54:01.103Z,8.30
2023-02-21T09:56:36.762Z,8.40
2023-02-21T09:59:07.814Z,11.10
2023-02-21T10:01:49.439Z,11.23
2023-02-21T10:04:28.169Z,13.37
2023-02-21T10:07:01.962Z,9.50
2023-02-21T10:09:42.644Z,8.47
2023-02-21T10:12:22.714Z,11.73
2023-02-21T10:15:16.195Z,7.50
2023-02-21T10:17:50.822Z,10.87
2023-02-21T10:20:28.993Z,8.47
2023-02-21T10:22:59.614Z,13.03
2023-02-21T10:25:32.527Z,12.33
2023-02-21T10:28:04.999Z,9.70
2023-02-21T10:30:41.410Z,8.30
2023-02-21T10:33:11.972Z,9.37
2023-02-21T10:35:42.298Z,15.37
2023-02-21T10:38:16.358Z,9.37
2023-02-21T10:40:48.485Z,9.53
2023-02-21T10:43:23.679Z,7.50
2023-02-21T10:45:58.259Z,6.57
2023-02-21T10:48:32.960Z,8.93
2023-02-21T10:51:13.734Z,6.93
2023-02-21T10:53:46.265Z,10.83
2023-02-21T10:56:28.089Z,6.37
2023-02-21T10:59:06.239Z,9.80
2023-02-21T11:01:39.993Z,5.60
2023-02-21T11:04:29.725Z,7.17
2023-02-21T11:07:05.861Z,4.83
2023-02-21T11:09:40.489Z,6.70
2023-02-21T11:12:24.041Z,3.53
2023-02-21T11:15:19.228Z,6.07
2023-02-21T11:18:05.987Z,4.80
2023-02-21T11:20:36.118Z,4.47
2023-02-21T11:23:10.329Z,6.30
2023-02-21T11:25:42.266Z,5.63
2023-02-21T11:28:21.364Z,5.47
2023-02-21T11:31:07.891Z,5.33
2023-02-21T11:33:41.983Z,6.03
2023-02-21T11:36:17.190Z,7.77
2023-02-21T11:39:01.676Z,5.20
2023-02-21T11:41:35.440Z,6.03
2023-02-21T11:44:21.216Z,5.90
2023-02-21T11:46:57.371Z,7.50
2023-02-21T11:49:31.591Z,5.73
2023-02-21T11:52:04.571Z,4.73
2023-02-21T11:54:35.026Z,7.83
2023-02-21T11:57:09.362Z,7.20
2023-02-21T11:59:48.562Z,3.60
2023-02-21T12:02:41.297Z,4.93
2023-02-21T12:05:35.277Z,4.20
2023-02-21T12:08:23.957Z,6.90
2023-02-21T12:11:01.035Z,4.43
2023-02-21T12:13:55.514Z,10.13
2023-02-21T12:16:33.511Z,3.10
2023-02-21T12:19:26.674Z,4.20
2023-02-21T12:22:04.336Z,3.27
2023-02-21T12:24:53.746Z,3.50
2023-02-21T12:27:32.181Z,3.93
2023-02-21T12:30:19.497Z,6.13
2023-02-21T12:32:56.959Z,4.50
2023-02-21T12:36:02.737Z,4.73
2023-02-21T12:38:39.438Z,2.60
2023-02-21T12:41:23.195Z,3.63
2023-02-21T12:44:01.350Z,6.30
2023-02-21T12:46:36.526Z,3.50
2023-02-21T12:49:11.480Z,2.80
2023-02-21T12:51:46.738Z,2.93
2023-02-21T12:54:18.947Z,3.70
2023-02-21T12:56:53.917Z,4.30
2023-02-21T12:59:28.849Z,2.60
2023-02-21T13:02:03.897Z,2.93
2023-02-21T13:04:39.989Z,6.03
2023-02-21T13:07:19.903Z,2.47
2023-02-21T13:09:55.489Z,5.07
2023-02-21T13:12:32.513Z,2.53
2023-02-21T13:15:07.192Z,2.30
2023-02-21T13:17:38.120Z,4.00
2023-02-21T13:20:11.335Z,4.80
2023-02-21T13:23:37.147Z,2.70
2023-02-21T13:26:27.002Z,3.07
2023-02-21T13:28:59.812Z,4.70
2023-02-21T13:31:37.460Z,2.90
2023-02-21T13:34:11.862Z,3.33
2023-02-21T13:36:45.486Z,3.87
2023-02-21T13:39:17.587Z,2.57
2023-02-21T13:41:51.413Z,2.60
2023-02-21T13:44:28.135Z,2.17
2023-02-21T13:47:14.156Z,2.23
2023-02-21T13:49:53.945Z,3.27
2023-02-21T13:53:00.484Z,3.00
2023-02-21T13:55:36.544Z,3.00
2023-02-21T13:58:34.690Z,1.50
2023-02-21T14:01:50.661Z,5.53
2023-02-21T14:04:55.359Z,2.93
2023-02-21T14:07:57.213Z,3.93
2023-02-21T14:10:35.668Z,2.60
2023-02-21T14:13:09.167Z,2.10
2023-02-21T14:15:47.288Z,3.87
2023-02-21T14:18:20.782Z,2.87
2023-02-21T14:20:55.731Z,3.27
2023-02-21T14:23:42.689Z,1.60
2023-02-21T14:26:37.340Z,2.90
2023-02-21T14:29:32.993Z,2.60
2023-02-21T14:32:31.687Z,3.30
2023-02-21T14:35:03.018Z,2.10
2023-02-21T14:37:37.997Z,2.73
2023-02-21T14:40:23.113Z,4.83
2023-02-21T14:43:16.999Z,3.73
2023-02-21T14:46:07.511Z,2.50
2023-02-21T14:49:00.629Z,2.73
2023-02-21T14:52:14.767Z,2.37
2023-02-21T14:55:25.390Z,2.17
2023-02-21T14:58:38.017Z,2.70
2023-02-21T15:01:13.378Z,3.93
2023-02-21T15:03:48.832Z,2.00
2023-02-21T15:06:22.377Z,2.03
2023-02-21T15:08:55.210Z,1.07
2023-02-21T15:11:29.452Z,1.40
2023-02-21T15:14:24.675Z,1.27
2023-02-21T15:16:59.931Z,5.77
2023-02-21T15:19:35.325Z,1.83
2023-02-21T15:22:29.765Z,1.40
2023-02-21T15:25:03.308Z,3.90
2023-02-21T15:27:34.211Z,0.80
2023-02-21T15:30:08.402Z,1.83
2023-02-21T15:32:38.725Z,1.30
2023-02-21T15:35:18.373Z,1.77
2023-02-21T15:37:48.557Z,3.47
2023-02-21T15:40:21.738Z,1.87
2023-02-21T15:42:53.484Z,2.23
2023-02-21T15:45:26.532Z,1.53
2023-02-21T15:47:57.269Z,2.37
2023-02-21T15:50:34.795Z,2.23
2023-02-21T15:53:17.953Z,1.73
2023-02-21T15:55:50.034Z,1.00
2023-02-21T15:58:27.307Z,1.00
2023-02-21T16:01:08.848Z,1.90
2023-02-21T16:03:41.163Z,1.43
2023-02-21T16:06:28.814Z,2.03
2023-02-21T16:09:04.702Z,1.93
2023-02-21T16:11:44.275Z,1.70
2023-02-21T16:14:24.073Z,3.90
2023-02-21T16:17:00.511Z,1.40
2023-02-21T16:19:33.686Z,4.50
2023-02-21T16:22:28.493Z,1.97
2023-02-21T16:25:13.733Z,5.70
2023-02-21T16:27:46.488Z,2.00
2023-02-21T16:30:19.350Z,6.03
2023-02-21T16:32:50.728Z,1.50
2023-02-21T16:35:22.681Z,3.03
2023-02-21T16:37:57.402Z,1.40
2023-02-21T16:40:30.176Z,1.13
2023-02-21T16:43:02.633Z,1.60
2023-02-21T16:45:33.416Z,4.00
2023-02-21T16:48:05.854Z,6.20
2023-02-21T16:50:37.988Z,3.70
2023-02-21T16:53:14.460Z,4.40
2023-02-21T16:55:45.420Z,6.60
2023-02-21T16:58:26.690Z,7.47
2023-02-21T17:00:59.727Z,10.20
2023-02-21T17:03:30.937Z,5.57
2023-02-21T17:06:02.349Z,9.40
2023-02-21T17:08:35.876Z,7.00
2023-02-21T17:11:06.624Z,9.90
2023-02-21T17:13:37.183Z,10.03
2023-02-21T17:16:08.614Z,12.00
2023-02-21T17:18:39.270Z,9.50
2023-02-21T17:21:11.850Z,9.20
2023-02-21T17:23:44.205Z,9.43
2023-02-21T17:26:18.236Z,10.70
2023-02-21T17:28:49.661Z,9.40
2023-02-21T17:31:20.790Z,9.47
2023-02-21T17:33:52.206Z,8.97
2023-02-21T17:36:25.983Z,14.47
2023-02-21T17:38:59.046Z,13.00
2023-02-21T17:41:30.136Z,8.00
2023-02-21T17:44:02.041Z,13.67
2023-02-21T17:46:33.065Z,13.30
2023-02-21T17:49:03.470Z,11.30
2023-02-21T17:51:34.821Z,7.73
2023-02-21T17:54:07.225Z,15.10
2023-02-21T17:56:37.876Z,11.80
2023-02-21T17:59:07.888Z,11.23
2023-02-21T18:01:38.483Z,11.00
2023-02-21T18:04:13.823Z,9.20
2023-02-21T18:06:44.665Z,14.43
2023-02-21T18:09:16.674Z,11.07
2023-02-21T18:11:50.814Z,10.17
2023-02-21T18:14:22.531Z,11.30
2023-02-21T18:16:53.316Z,15.63
2023-02-21T18:19:23.779Z,14.43
2023-02-21T18:21:54.600Z,16.00
2023-02-21T18:24:27.949Z,14.40
2023-02-21T18:26:57.795Z,13.30
2023-02-21T18:29:28.676Z,14.77
2023-02-21T18:31:59.408Z,11.27
2023-02-21T18:34:29.747Z,10.97
2023-02-21T18:36:59.916Z,8.80
2023-02-21T18:39:33.754Z,10.23
2023-02-21T18:42:04.719Z,7.57
2023-02-21T18:44:35.426Z,9.27
2023-02-21T18:47:05.779Z,9.03
2023-02-21T18:49:39.010Z,12.40
2023-02-21T18:52:10.154Z,9.30
2023-02-21T18:54:46.636Z,10.50
2023-02-21T18:57:16.881Z,12.87
2023-02-21T18:59:47.619Z,11.23
2023-02-21T19:02:20.817Z,10.53
2023-02-21T19:04:53.441Z,9.93
2023-02-21T19:07:24.025Z,8.57
2023-02-21T19:09:56.221Z,13.00
2023-02-21T19:12:27.275Z,10.30
2023-02-21T19:14:57.925Z,8.93
2023-02-21T19:17:28.396Z,10.93
2023-02-21T19:19:59.962Z,8.60
2023-02-21T19:22:30.531Z,9.13
2023-02-21T19:25:02.796Z,9.70
2023-02-21T19:27:33.186Z,8.87
2023-02-21T19:30:03.577Z,8.33
2023-02-21T19:32:36.575Z,10.90
2023-02-21T19:35:08.533Z,11.53
2023-02-21T19:37:40.061Z,11.60
2023-02-21T19:40:13.482Z,16.47
2023-02-21T19:42:43.968Z,14.27
2023-02-21T19:45:14.601Z,13.17
2023-02-21T19:47:45.581Z,11.00
2023-02-21T19:50:16.403Z,12.37
2023-02-21T19:52:47.553Z,13.30
2023-02-21T19:55:19.719Z,12.67
2023-02-21T19:57:49.829Z,13.20
2023-02-21T20:00:21.605Z,13.17
2023-02-21T20:02:52.517Z,19.07
2023-02-21T20:05:22.457Z,13.23
2023-02-21T20:07:53.492Z,14.10
2023-02-21T20:10:26.792Z,12.77
2023-02-21T20:12:58.604Z,14.40
2023-02-21T20:15:29.402Z,13.07
2023-02-21T20:18:00.435Z,12.70
2023-02-21T20:20:31.753Z,11.57
2023-02-21T20:23:03.839Z,12.60
2023-02-21T20:25:36.955Z,14.30
2023-02-21T20:28:08.083Z,13.63
2023-02-21T20:30:38.732Z,12.93
2023-02-21T20:33:09.008Z,12.13
2023-02-21T20:35:39.320Z,11.73
2023-02-21T20:38:11.283Z,10.63
2023-02-21T20:40:43.022Z,8.53
2023-02-21T20:43:13.448Z,14.10
2023-02-21T20:45:44.577Z,9.17
2023-02-21T20:48:14.777Z,7.70
2023-02-21T20:50:46.991Z,10.80
2023-02-21T20:53:17.942Z,11.53
2023-02-21T20:55:50.728Z,10.00
2023-02-21T20:58:22.162Z,9.80
2023-02-21T21:00:53.778Z,8.40
2023-02-21T21:03:24.950Z,10.23
2023-02-21T21:05:54.998Z,9.70
2023-02-21T21:08:25.164Z,11.80
2023-02-21T21:10:58.064Z,12.80
2023-02-21T21:13:28.520Z,10.53
2023-02-21T21:15:59.632Z,11.17
2023-02-21T21:18:29.952Z,10.40
2023-02-21T21:21:00.747Z,12.33
2023-02-21T21:23:31.208Z,12.80
2023-02-21T21:26:04.221Z,11.33
2023-02-21T21:28:34.692Z,15.30
2023-02-21T21:31:05.301Z,10.07
2023-02-21T21:33:35.935Z,10.73
2023-02-21T21:36:10.125Z,12.90
2023-02-21T21:38:41.161Z,10.83
2023-02-21T21:41:15.703Z,10.97
2023-02-21T21:43:48.985Z,10.93
2023-02-21T21:46:20.723Z,12.43
2023-02-21T21:48:51.697Z,10.07
2023-02-21T21:51:22.267Z,8.50
2023-02-21T21:53:52.562Z,9.00
2023-02-21T21:56:28.400Z,9.60
2023-02-21T21:58:59.695Z,10.10
2023-02-21T22:01:30.946Z,8.63
2023-02-21T22:04:01.790Z,10.77
2023-02-21T22:06:33.021Z,8.10
2023-02-21T22:09:03.579Z,8.50
2023-02-21T22:11:35.987Z,10.63
2023-02-21T22:14:07.255Z,8.17
2023-02-21T22:16:38.313Z,8.07
2023-02-21T22:19:08.821Z,9.80
2023-02-21T22:21:44.790Z,7.47
2023-02-21T22:24:17.274Z,10.80
2023-02-21T22:26:51.050Z,7.17
2023-02-21T22:29:21.211Z,8.10
2023-02-21T22:31:52.532Z,8.13
2023-02-21T22:34:25.526Z,8.80
2023-02-21T22:36:57.570Z,6.73
2023-02-21T22:39:28.734Z,7.70
2023-02-21T22:42:01.350Z,7.13
2023-02-21T22:44:31.890Z,8.90
2023-02-21T22:47:03.455Z,7.13
2023-02-21T22:49:34.315Z,7.73
2023-02-21T22:52:04.685Z,7.37
2023-02-21T22:54:35.190Z,5.70
2023-02-21T22:57:07.587Z,5.63
2023-02-21T22:59:37.868Z,6.57
2023-02-21T23:02:09.117Z,8.27
2023-02-21T23:04:39.050Z,6.23
2023-02-21T23:07:09.632Z,5.97
2023-02-21T23:09:40.408Z,7.40
2023-02-21T23:12:15.584Z,7.53
2023-02-21T23:14:48.779Z,7.67
2023-02-21T23:17:20.138Z,6.70
2023-02-21T23:19:51.221Z,6.73
2023-02-21T23:22:21.441Z,8.07
2023-02-21T23:24:51.916Z,8.63
2023-02-21T23:27:23.822Z,10.80
2023-02-21T23:29:55.111Z,6.80
2023-02-21T23:32:25.799Z,8.37
2023-02-21T23:34:56.547Z,6.90
2023-02-21T23:37:27.083Z,5.60
2023-02-21T23:39:57.543Z,6.80
2023-02-21T23:42:31.780Z,6.80
2023-02-21T23:45:01.694Z,6.67
2023-02-21T23:47:32.566Z,5.13
2023-02-21T23:50:02.525Z,5.00
2023-02-21T23:52:32.799Z,7.00
2023-02-21T23:55:02.638Z,5.53
2023-02-21T23:57:35.876Z,5.97
